createdAt,value
2023-04-06T00:00:56.592Z,43.07
2023-04-06T00:03:45.473Z,43.24
2023-04-06T00:06:34.368Z,43.08
2023-04-06T00:09:23.094Z,42.81
2023-04-06T00:12:13.200Z,42.51
2023-04-06T00:15:02.548Z,42.67
2023-04-06T00:17:51.670Z,42.85
2023-04-06T00:20:41.416Z,42.97
2023-04-06T00:23:31.046Z,43.17
2023-04-06T00:26:19.830Z,43.04
2023-04-06T00:29:10.360Z,42.79
2023-04-06T00:31:59.350Z,43.12
2023-04-06T00:34:48.171Z,42.96
2023-04-06T00:37:37.078Z,42.67
2023-04-06T00:40:25.915Z,42.96
2023-04-06T00:43:15.034Z,42.70
2023-04-06T00:46:05.222Z,42.80
2023-04-06T00:48:54.070Z,42.83
2023-04-06T00:51:42.821Z,42.63
2023-04-06T00:54:32.442Z,42.95
2023-04-06T00:57:21.403Z,42.67
2023-04-06T01:00:10.991Z,42.76
2023-04-06T01:03:01.964Z,43.00
2023-04-06T01:05:53.377Z,42.72
2023-04-06T01:08:42.109Z,43.05
2023-04-06T01:11:31.193Z,42.98
2023-04-06T01:14:21.816Z,42.72
2023-04-06T01:17:10.820Z,42.72
2023-04-06T01:20:01.006Z,42.81
2023-04-06T01:22:51.243Z,42.98
2023-04-06T01:25:42.425Z,42.92
2023-04-06T01:28:31.306Z,42.64
2023-04-06T01:31:20.123Z,42.63
2023-04-06T01:34:08.935Z,42.72
2023-04-06T01:36:57.845Z,42.88
2023-04-06T01:39:47.998Z,42.45
2023-04-06T01:42:36.901Z,43.02
2023-04-06T01:45:25.649Z,42.72
2023-04-06T01:48:15.282Z,42.88
2023-04-06T01:51:04.168Z,42.64
2023-04-06T01:53:53.088Z,43.14
2023-04-06T01:56:43.282Z,42.64
2023-04-06T01:59:32.195Z,42.99
2023-04-06T02:02:21.050Z,42.62
2023-04-06T02:05:10.523Z,42.95
2023-04-06T02:07:59.543Z,42.81
2023-04-06T02:10:48.326Z,42.92
2023-04-06T02:13:38.595Z,43.01
2023-04-06T02:16:27.522Z,43.08
2023-04-06T02:19:16.311Z,43.00
2023-04-06T02:22:05.137Z,42.97
2023-04-06T02:24:53.932Z,43.64
2023-04-06T02:27:42.988Z,42.92
2023-04-06T02:30:33.796Z,42.81
2023-04-06T02:33:22.612Z,43.29
2023-04-06T02:36:11.454Z,42.90
2023-04-06T02:39:00.439Z,42.90
2023-04-06T02:41:49.270Z,43.01
2023-04-06T02:44:38.126Z,42.76
2023-04-06T02:47:28.387Z,42.95
2023-04-06T02:50:17.375Z,43.10
2023-04-06T02:53:06.177Z,42.79
2023-04-06T02:55:55.260Z,43.15
2023-04-06T02:58:44.051Z,42.93
2023-04-06T03:01:32.875Z,42.82
2023-04-06T03:04:26.304Z,42.77
2023-04-06T03:07:15.251Z,42.62
2023-04-06T03:10:04.141Z,42.98
2023-04-06T03:12:53.170Z,42.82
2023-04-06T03:15:41.906Z,42.87
2023-04-06T03:18:30.885Z,42.61
2023-04-06T03:21:21.327Z,43.02
2023-04-06T03:24:10.684Z,42.79
2023-04-06T03:26:59.453Z,43.11
2023-04-06T03:29:48.356Z,42.69
2023-04-06T03:32:37.271Z,42.75
2023-04-06T03:35:26.684Z,42.73
2023-04-06T03:38:16.869Z,42.98
2023-04-06T03:41:05.917Z,42.94
2023-04-06T03:43:54.963Z,43.11
2023-04-06T03:46:43.781Z,42.85
2023-04-06T03:49:32.756Z,42.96
2023-04-06T03:52:23.830Z,42.82
2023-04-06T03:55:14.100Z,42.73
2023-04-06T03:58:03.425Z,42.84
2023-04-06T04:00:52.280Z,43.13
2023-04-06T04:03:41.230Z,42.98
2023-04-06T04:06:30.052Z,43.19
2023-04-06T04:09:18.805Z,42.98
2023-04-06T04:12:09.525Z,43.00
2023-04-06T04:14:58.488Z,42.73
2023-04-06T04:17:50.128Z,43.05
2023-04-06T04:20:38.993Z,43.20
2023-04-06T04:23:27.745Z,42.87
2023-04-06T04:26:16.600Z,43.05
2023-04-06T04:29:07.093Z,42.92
2023-04-06T04:31:56.126Z,42.51
2023-04-06T04:34:45.053Z,43.09
2023-04-06T04:37:35.705Z,42.80
2023-04-06T04:40:24.557Z,42.87
2023-04-06T04:43:13.344Z,43.21
2023-04-06T04:46:05.088Z,42.89
2023-04-06T04:48:53.954Z,42.75
2023-04-06T04:51:42.794Z,42.69
2023-04-06T04:54:31.595Z,43.12
2023-04-06T04:57:20.405Z,43.14
2023-04-06T05:00:10.270Z,43.34
2023-04-06T05:03:00.529Z,43.12
2023-04-06T05:05:49.490Z,43.52
2023-04-06T05:08:38.366Z,43.32
2023-04-06T05:11:27.478Z,43.54
2023-04-06T05:14:16.883Z,42.93
2023-04-06T05:17:05.975Z,42.53
2023-04-06T05:19:56.235Z,42.88
2023-04-06T05:22:44.986Z,42.32
2023-04-06T05:25:34.781Z,42.97
2023-04-06T05:28:23.578Z,42.93
2023-04-06T05:31:12.526Z,43.43
2023-04-06T05:34:01.574Z,43.28
2023-04-06T05:36:51.789Z,42.94
2023-04-06T05:39:40.827Z,43.48
2023-04-06T05:42:29.787Z,43.38
2023-04-06T05:45:19.582Z,42.94
2023-04-06T05:48:08.692Z,42.87
2023-04-06T05:50:57.573Z,43.04
2023-04-06T05:53:47.716Z,42.73
2023-04-06T05:56:36.642Z,43.14
2023-04-06T05:59:25.907Z,43.41
2023-04-06T06:02:14.974Z,43.32
2023-04-06T06:05:03.832Z,43.51
2023-04-06T06:07:52.660Z,43.23
2023-04-06T06:10:42.992Z,42.95
2023-04-06T06:13:31.784Z,43.11
2023-04-06T06:16:21.052Z,43.39
2023-04-06T06:19:09.828Z,43.17
2023-04-06T06:21:59.596Z,43.00
2023-04-06T06:24:48.343Z,43.26
2023-04-06T06:27:38.667Z,42.95
2023-04-06T06:30:27.738Z,42.77
2023-04-06T06:33:16.541Z,42.97
2023-04-06T06:36:05.618Z,43.05
2023-04-06T06:38:54.383Z,42.51
2023-04-06T06:41:43.104Z,42.44
2023-04-06T06:44:33.353Z,42.67
2023-04-06T06:47:22.143Z,42.27
2023-04-06T06:50:11.473Z,42.00
2023-04-06T06:53:00.276Z,42.32
2023-04-06T06:55:49.841Z,42.08
2023-04-06T06:58:38.580Z,42.23
2023-04-06T07:01:28.902Z,41.96
2023-04-06T07:04:18.046Z,41.97
2023-04-06T07:07:07.478Z,41.73
2023-04-06T07:09:56.376Z,41.96
2023-04-06T07:12:45.198Z,42.01
2023-04-06T07:15:33.932Z,41.70
2023-04-06T07:18:25.832Z,41.75
2023-04-06T07:21:14.737Z,41.48
2023-04-06T07:24:03.596Z,41.87
2023-04-06T07:26:52.480Z,41.85
2023-04-06T07:29:41.576Z,41.71
2023-04-06T07:32:30.986Z,41.44
2023-04-06T07:35:21.426Z,41.77
2023-04-06T07:38:10.465Z,41.72
2023-04-06T07:40:59.301Z,41.79
2023-04-06T07:43:48.099Z,41.69
2023-04-06T07:46:37.167Z,41.52
2023-04-06T07:49:26.078Z,41.55
2023-04-06T07:52:16.192Z,41.73
2023-04-06T07:55:05.120Z,41.58
2023-04-06T07:57:53.982Z,41.66
2023-04-06T08:00:42.761Z,41.31
2023-04-06T08:03:31.882Z,41.48
2023-04-06T08:06:20.873Z,41.44
2023-04-06T08:09:11.215Z,41.77
2023-04-06T08:12:00.230Z,41.64
2023-04-06T08:14:49.088Z,41.70
2023-04-06T08:17:37.928Z,41.37
2023-04-06T08:20:26.681Z,41.53
2023-04-06T08:23:21.935Z,41.79
2023-04-06T08:26:12.137Z,41.80
2023-04-06T08:29:01.105Z,41.58
2023-04-06T08:31:50.370Z,41.69
2023-04-06T08:34:39.492Z,41.71
2023-04-06T08:37:28.455Z,42.00
2023-04-06T08:40:17.508Z,41.94
2023-04-06T08:43:10.883Z,41.97
2023-04-06T08:46:00.278Z,42.00
2023-04-06T08:48:50.921Z,41.98
2023-04-06T08:51:40.025Z,41.96
2023-04-06T08:54:28.845Z,42.11
2023-04-06T08:57:18.223Z,41.83
2023-04-06T09:00:10.973Z,41.53
2023-04-06T09:03:00.771Z,41.54
2023-04-06T09:05:50.708Z,41.77
2023-04-06T09:08:42.260Z,41.85
2023-04-06T09:11:31.115Z,41.75
2023-04-06T09:14:20.351Z,41.55
2023-04-06T09:17:10.606Z,41.83
2023-04-06T09:19:59.852Z,42.04
2023-04-06T09:22:50.459Z,41.48
2023-04-06T09:25:39.177Z,41.70
2023-04-06T09:28:27.964Z,41.85
2023-04-06T09:31:17.549Z,41.66
2023-04-06T09:34:08.225Z,41.41
2023-04-06T09:36:57.273Z,41.51
2023-04-06T09:39:46.407Z,41.57
2023-04-06T09:42:35.781Z,41.64
2023-04-06T09:45:24.606Z,41.53
2023-04-06T09:48:13.468Z,41.54
2023-04-06T09:51:06.853Z,41.65
2023-04-06T09:53:56.800Z,41.20
2023-04-06T09:56:48.646Z,41.29
2023-04-06T09:59:42.891Z,41.33
2023-04-06T10:02:36.755Z,41.37
2023-04-06T10:05:38.778Z,41.71
2023-04-06T10:08:33.031Z,41.30
2023-04-06T10:11:22.037Z,41.25
2023-04-06T10:14:12.850Z,41.69
2023-04-06T10:17:02.768Z,41.79
2023-04-06T10:19:56.575Z,41.70
2023-04-06T10:22:53.429Z,41.50
2023-04-06T10:25:55.613Z,42.19
2023-04-06T10:28:45.419Z,42.01
2023-04-06T10:31:34.612Z,41.91
2023-04-06T10:34:23.652Z,41.86
2023-04-06T10:37:16.509Z,41.97
2023-04-06T10:40:05.811Z,42.30
2023-04-06T10:42:56.815Z,42.25
2023-04-06T10:45:45.723Z,42.28
2023-04-06T10:48:42.081Z,42.34
2023-04-06T10:51:31.960Z,42.17
2023-04-06T10:54:22.019Z,42.44
2023-04-06T10:57:10.777Z,42.36
2023-04-06T11:00:00.926Z,42.29
2023-04-06T11:02:49.782Z,42.54
2023-04-06T11:05:38.597Z,42.45
2023-04-06T11:08:31.077Z,42.30
2023-04-06T11:11:21.173Z,42.34
2023-04-06T11:14:12.639Z,42.22
2023-04-06T11:17:04.086Z,42.45
2023-04-06T11:19:52.819Z,42.54
2023-04-06T11:22:51.538Z,42.16
2023-04-06T11:25:41.532Z,42.10
2023-04-06T11:28:31.529Z,42.31
2023-04-06T11:31:20.609Z,42.70
2023-04-06T11:34:18.658Z,42.06
2023-04-06T11:37:10.583Z,42.06
2023-04-06T11:39:59.441Z,42.10
2023-04-06T11:42:55.137Z,42.26
2023-04-06T11:45:44.515Z,42.43
2023-04-06T11:48:34.472Z,42.35
2023-04-06T11:51:27.530Z,42.21
2023-04-06T11:54:17.946Z,42.58
2023-04-06T11:57:07.352Z,42.37
2023-04-06T11:59:56.109Z,42.64
2023-04-06T12:02:48.763Z,42.47
2023-04-06T12:05:37.524Z,42.47
2023-04-06T12:08:27.652Z,42.36
2023-04-06T12:11:16.784Z,42.45
2023-04-06T12:14:08.436Z,42.67
2023-04-06T12:16:57.201Z,42.54
2023-04-06T12:19:45.950Z,42.51
2023-04-06T12:22:34.820Z,42.46
2023-04-06T12:25:24.974Z,42.64
2023-04-06T12:28:13.979Z,42.71
2023-04-06T12:31:02.813Z,42.49
2023-04-06T12:33:52.458Z,42.76
2023-04-06T12:36:41.616Z,42.88
2023-04-06T12:39:31.257Z,42.45
2023-04-06T12:42:21.674Z,42.62
2023-04-06T12:45:11.158Z,42.56
2023-04-06T12:48:00.061Z,42.77
2023-04-06T12:50:57.586Z,42.77
2023-04-06T12:53:46.340Z,42.63
2023-04-06T12:56:35.099Z,42.61
2023-04-06T12:59:26.213Z,42.80
2023-04-06T13:02:15.126Z,42.87
2023-04-06T13:05:04.005Z,42.74
2023-04-06T13:07:52.770Z,42.66
2023-04-06T13:10:45.628Z,42.80
2023-04-06T13:13:34.414Z,42.62
2023-04-06T13:16:24.640Z,42.76
2023-04-06T13:19:13.623Z,42.69
2023-04-06T13:22:02.549Z,42.79
2023-04-06T13:24:51.286Z,42.80
2023-04-06T13:27:40.310Z,42.28
2023-04-06T13:30:29.433Z,42.55
2023-04-06T13:33:19.868Z,42.68
2023-04-06T13:36:09.514Z,42.59
2023-04-06T13:38:58.508Z,42.23
2023-04-06T13:41:47.360Z,42.59
2023-04-06T13:44:36.114Z,42.57
2023-04-06T13:47:25.180Z,42.32
2023-04-06T13:50:15.420Z,42.55
2023-04-06T13:53:04.066Z,42.26
2023-04-06T13:55:56.132Z,38.38
2023-04-06T13:58:45.192Z,31.31
2023-04-06T14:01:34.065Z,30.10
2023-04-06T14:04:22.805Z,29.30
2023-04-06T14:07:12.771Z,30.15
2023-04-06T14:10:02.118Z,28.15
2023-04-06T14:12:51.352Z,25.87
2023-04-06T14:15:40.032Z,25.21
2023-04-06T14:18:31.846Z,25.19
2023-04-06T14:21:21.025Z,25.43
2023-04-06T14:24:11.229Z,25.39
2023-04-06T14:27:00.133Z,26.26
2023-04-06T14:29:48.751Z,27.87
2023-04-06T14:32:38.453Z,29.75
2023-04-06T14:35:29.034Z,29.99
2023-04-06T14:38:17.945Z,29.34
2023-04-06T14:41:07.990Z,30.09
2023-04-06T14:43:56.999Z,29.96
2023-04-06T14:46:45.915Z,30.20
2023-04-06T14:49:34.743Z,30.45
2023-04-06T14:52:23.432Z,30.50
2023-04-06T14:55:12.069Z,30.58
2023-04-06T14:58:02.033Z,30.35
2023-04-06T15:00:51.198Z,30.06
2023-04-06T15:03:39.951Z,30.27
2023-04-06T15:06:28.707Z,29.96
2023-04-06T15:09:17.279Z,30.09
2023-04-06T15:12:06.364Z,30.16
2023-04-06T15:14:56.319Z,30.21
2023-04-06T15:17:45.028Z,30.05
2023-04-06T15:20:33.684Z,30.44
2023-04-06T15:23:22.431Z,30.21
2023-04-06T15:26:11.058Z,30.13
2023-04-06T15:28:59.655Z,29.26
2023-04-06T15:31:49.719Z,29.00
2023-04-06T15:34:38.488Z,29.58
2023-04-06T15:37:27.358Z,29.95
2023-04-06T15:40:16.803Z,30.05
2023-04-06T15:43:05.483Z,30.20
2023-04-06T15:45:54.844Z,30.34
2023-04-06T15:48:45.705Z,30.24
2023-04-06T15:51:34.695Z,29.76
2023-04-06T15:54:23.422Z,30.01
2023-04-06T15:57:12.044Z,29.97
2023-04-06T16:00:01.240Z,29.87
2023-04-06T16:02:50.154Z,29.24
2023-04-06T16:05:49.004Z,28.47
2023-04-06T16:08:48.235Z,28.71
2023-04-06T16:11:37.140Z,28.56
2023-04-06T16:14:25.962Z,29.21
2023-04-06T16:17:15.840Z,29.45
2023-04-06T16:20:04.753Z,29.77
2023-04-06T16:22:54.850Z,29.25
2023-04-06T16:25:43.529Z,29.11
2023-04-06T16:28:33.089Z,29.06
2023-04-06T16:31:22.674Z,28.86
2023-04-06T16:34:11.637Z,29.45
2023-04-06T16:37:03.223Z,29.43
2023-04-06T16:39:53.819Z,28.95
2023-04-06T16:42:44.683Z,28.90
2023-04-06T16:45:33.328Z,29.21
2023-04-06T16:48:21.982Z,28.89
2023-04-06T16:51:11.318Z,29.09
2023-04-06T16:54:00.159Z,29.60
2023-04-06T16:56:50.224Z,30.04
2023-04-06T16:59:40.161Z,29.96
2023-04-06T17:02:29.209Z,30.02
2023-04-06T17:05:21.872Z,30.37
2023-04-06T17:08:10.530Z,30.48
2023-04-06T17:11:03.739Z,30.53
2023-04-06T17:13:54.629Z,30.56
2023-04-06T17:16:43.287Z,30.46
2023-04-06T17:19:31.962Z,30.21
2023-04-06T17:22:21.467Z,29.35
2023-04-06T17:25:11.337Z,29.44
2023-04-06T17:28:00.288Z,30.00
2023-04-06T17:30:50.373Z,29.77
2023-04-06T17:33:39.245Z,29.49
2023-04-06T17:36:28.980Z,29.54
2023-04-06T17:39:18.614Z,30.96
2023-04-06T17:42:08.438Z,31.98
2023-04-06T17:44:59.565Z,32.67
2023-04-06T17:47:49.640Z,33.15
2023-04-06T17:50:39.987Z,33.75
2023-04-06T17:53:30.634Z,33.94
2023-04-06T17:56:19.273Z,34.19
2023-04-06T17:59:10.422Z,34.55
2023-04-06T18:01:59.146Z,34.68
2023-04-06T18:04:52.510Z,34.84
2023-04-06T18:07:41.551Z,34.97
2023-04-06T18:10:30.121Z,34.61
2023-04-06T18:13:20.029Z,34.98
2023-04-06T18:16:08.776Z,35.33
2023-04-06T18:18:57.968Z,34.81
2023-04-06T18:21:48.233Z,34.90
2023-04-06T18:24:42.657Z,35.15
2023-04-06T18:27:31.950Z,35.43
2023-04-06T18:30:20.651Z,35.69
2023-04-06T18:33:09.715Z,35.95
2023-04-06T18:35:58.334Z,35.88
2023-04-06T18:38:49.684Z,36.31
2023-04-06T18:41:39.181Z,35.92
2023-04-06T18:44:27.848Z,36.11
2023-04-06T18:47:16.799Z,36.42
2023-04-06T18:50:05.975Z,36.29
2023-04-06T18:52:54.708Z,36.71
2023-04-06T18:55:45.234Z,36.44
2023-04-06T18:58:33.892Z,36.44
2023-04-06T19:01:23.475Z,36.32
2023-04-06T19:04:12.536Z,36.16
2023-04-06T19:07:01.733Z,36.43
2023-04-06T19:09:50.651Z,36.63
2023-04-06T19:12:40.605Z,37.29
2023-04-06T19:15:29.223Z,36.78
2023-04-06T19:18:17.811Z,36.46
2023-04-06T19:21:06.994Z,36.57
2023-04-06T19:23:56.551Z,36.55
2023-04-06T19:26:46.098Z,36.83
2023-04-06T19:29:38.251Z,36.65
2023-04-06T19:32:26.935Z,37.76
2023-04-06T19:35:15.662Z,36.78
2023-04-06T19:38:10.364Z,36.90
2023-04-06T19:40:59.119Z,36.72
2023-04-06T19:43:47.711Z,36.86
2023-04-06T19:46:37.692Z,37.07
2023-04-06T19:49:28.317Z,37.03
2023-04-06T19:52:17.436Z,36.81
2023-04-06T19:55:17.845Z,36.88
2023-04-06T19:58:07.278Z,37.06
2023-04-06T20:00:55.823Z,37.26
2023-04-06T20:03:46.473Z,37.05
2023-04-06T20:06:35.107Z,37.18
2023-04-06T20:09:24.441Z,37.28
2023-04-06T20:12:13.048Z,37.17
2023-04-06T20:15:01.768Z,37.45
2023-04-06T20:17:50.414Z,37.45
2023-04-06T20:20:40.486Z,37.53
2023-04-06T20:23:29.450Z,37.29
2023-04-06T20:26:19.248Z,37.47
2023-04-06T20:29:08.348Z,37.52
2023-04-06T20:31:57.045Z,37.74
2023-04-06T20:34:45.754Z,37.77
2023-04-06T20:37:37.195Z,37.77
2023-04-06T20:40:25.892Z,37.64
2023-04-06T20:43:14.517Z,37.74
2023-04-06T20:46:03.339Z,37.73
2023-04-06T20:48:52.021Z,37.99
2023-04-06T20:51:42.490Z,37.73
2023-04-06T20:54:32.527Z,37.83
2023-04-06T20:57:21.191Z,37.83
2023-04-06T21:00:10.747Z,37.89
2023-04-06T21:02:59.484Z,37.90
2023-04-06T21:05:52.621Z,38.34
2023-04-06T21:08:41.316Z,38.23
2023-04-06T21:11:31.374Z,38.52
2023-04-06T21:14:21.278Z,38.34
2023-04-06T21:17:10.008Z,38.74
2023-04-06T21:19:58.599Z,38.36
2023-04-06T21:22:47.217Z,38.33
2023-04-06T21:25:37.965Z,38.38
2023-04-06T21:28:28.484Z,38.35
2023-04-06T21:31:19.823Z,38.45
2023-04-06T21:34:10.925Z,38.13
2023-04-06T21:36:59.724Z,38.29
2023-04-06T21:39:48.422Z,38.28
2023-04-06T21:42:36.963Z,38.28
2023-04-06T21:45:27.003Z,38.62
2023-04-06T21:48:15.618Z,38.50
2023-04-06T21:51:04.329Z,38.46
2023-04-06T21:53:55.225Z,38.69
2023-04-06T21:56:43.867Z,38.55
2023-04-06T21:59:32.592Z,38.60
2023-04-06T22:02:22.881Z,38.76
2023-04-06T22:05:12.367Z,39.35
2023-04-06T22:08:02.336Z,39.27
2023-04-06T22:10:50.993Z,39.66
2023-04-06T22:13:40.574Z,39.01
2023-04-06T22:16:29.888Z,38.62
2023-04-06T22:19:20.013Z,38.38
2023-04-06T22:22:08.668Z,37.56
2023-04-06T22:24:58.468Z,38.45
2023-04-06T22:27:47.102Z,38.62
2023-04-06T22:30:35.870Z,38.64
2023-04-06T22:33:24.568Z,38.47
2023-04-06T22:36:16.768Z,38.27
2023-04-06T22:39:06.013Z,38.46
2023-04-06T22:41:54.606Z,38.46
2023-04-06T22:44:43.222Z,38.88
2023-04-06T22:47:32.154Z,39.12
2023-04-06T22:50:21.825Z,39.35
2023-04-06T22:53:11.772Z,39.53
2023-04-06T22:56:00.600Z,39.78
2023-04-06T22:58:51.054Z,39.62
2023-04-06T23:01:40.020Z,39.93
2023-04-06T23:04:28.767Z,40.03
2023-04-06T23:07:17.389Z,39.92
2023-04-06T23:10:08.672Z,39.78
2023-04-06T23:12:57.350Z,40.04
2023-04-06T23:15:45.926Z,40.12
2023-04-06T23:18:34.662Z,39.88
2023-04-06T23:21:23.176Z,40.13
2023-04-06T23:24:11.803Z,39.92
2023-04-06T23:27:01.735Z,40.12
2023-04-06T23:29:50.337Z,40.07
2023-04-06T23:32:38.990Z,39.88
2023-04-06T23:35:27.736Z,40.16
2023-04-06T23:38:16.475Z,40.19
2023-04-06T23:41:05.212Z,40.26
2023-04-06T23:43:55.862Z,40.49
2023-04-06T23:46:44.682Z,40.27
2023-04-06T23:49:34.942Z,40.20
2023-04-06T23:52:23.483Z,40.04
2023-04-06T23:55:12.155Z,40.30
2023-04-06T23:58:01.853Z,40.06
